Terminal Aerodrome Forecast
Issued by NWS

Home | Current Version | Previous Version | Text Only | Print | Product List | Glossary On
Versions: 1 2 3 4 5 6 7 8 9 10 11 12 13 14
000
FTUS45 KABQ 270500
TAFAEG
TAF
KAEG 270538Z 2706/2806 24011KT P6SM VCTS BKN080CB
      TEMPO 2706/2708 24015G24KT -TSRA BKN060CB
     FM270800 30011KT P6SM VCSH SCT060 BKN090
     FM271100 32006KT P6SM FEW060 SCT090
     FM272000 30007KT P6SM FEW070
     FM272200 24008KT P6SM VCTS SCT070CB=

USA.gov is the U.S. government's official web portal to all federal, state and local government web resources and services.